createdAt,value
2019-02-02T00:00:51.874Z,910.5
2019-02-02T00:01:51.788Z,910.5
2019-02-02T00:02:51.671Z,910.5
2019-02-02T00:03:51.547Z,910.5
2019-02-02T00:04:51.435Z,910.4
2019-02-02T00:05:51.334Z,910.3
2019-02-02T00:06:51.218Z,910.5
2019-02-02T00:07:51.125Z,910.5
2019-02-02T00:08:51.045Z,910.4
2019-02-02T00:09:50.931Z,910.6
2019-02-02T00:10:51.239Z,910.6
2019-02-02T00:11:51.155Z,910.5
2019-02-02T00:12:51.062Z,910.5
2019-02-02T00:13:50.965Z,910.4
2019-02-02T00:14:50.870Z,910.3
2019-02-02T00:15:50.754Z,910.5
2019-02-02T00:16:50.795Z,910.3
2019-02-02T00:17:50.712Z,910.5
2019-02-02T00:18:50.599Z,910.5
2019-02-02T00:19:50.504Z,910.5
2019-02-02T00:20:50.950Z,910.6
2019-02-02T00:21:50.877Z,910.5
2019-02-02T00:22:50.846Z,909
2019-02-02T00:23:50.754Z,910.5
2019-02-02T00:24:50.632Z,910.4
2019-02-02T00:25:50.532Z,910.4
2019-02-02T00:26:50.430Z,910.5
2019-02-02T00:27:50.324Z,910.6
2019-02-02T00:28:50.316Z,910.5
2019-02-02T00:29:50.254Z,910.3
2019-02-02T00:30:50.572Z,910.2
2019-02-02T00:31:50.491Z,909.5
2019-02-02T00:32:50.398Z,910.1
2019-02-02T00:33:50.138Z,910.2
2019-02-02T00:34:50.079Z,910.1
2019-02-02T00:35:49.847Z,910.3
2019-02-02T00:36:49.727Z,910.3
2019-02-02T00:37:49.634Z,910.3
2019-02-02T00:38:49.372Z,910.4
2019-02-02T00:39:49.105Z,910.3
2019-02-02T00:40:49.452Z,910.4
2019-02-02T00:41:49.391Z,910.5
2019-02-02T00:42:49.294Z,910.4
2019-02-02T00:43:49.189Z,910.4
2019-02-02T00:44:49.070Z,910.5
2019-02-02T00:45:48.958Z,910.4
2019-02-02T00:46:48.878Z,910.4
2019-02-02T00:47:48.785Z,910.4
2019-02-02T00:48:48.678Z,910.3
2019-02-02T00:49:48.674Z,910.3
2019-02-02T00:50:48.981Z,910.3
2019-02-02T00:51:48.868Z,910.1
2019-02-02T00:52:48.911Z,910.2
2019-02-02T00:53:48.796Z,910.2
2019-02-02T00:54:48.709Z,910.2
2019-02-02T00:55:48.600Z,908.6
2019-02-02T00:56:48.514Z,910.1
2019-02-02T00:57:54.842Z,910.1
2019-02-02T00:58:54.735Z,910.2
2019-02-02T00:59:54.643Z,910.3
2019-02-02T01:00:55.186Z,910.4
2019-02-02T01:01:55.074Z,910.2
2019-02-02T01:02:54.973Z,910.4
2019-02-02T01:03:54.874Z,910.4
2019-02-02T01:04:54.806Z,910.3
2019-02-02T01:05:54.838Z,910.5
2019-02-02T01:06:54.715Z,910.4
2019-02-02T01:07:54.628Z,910.3
2019-02-02T01:08:54.519Z,910.2
2019-02-02T01:09:54.418Z,910.1
2019-02-02T01:10:54.732Z,910.2
2019-02-02T01:11:54.648Z,910.1
2019-02-02T01:12:54.546Z,910.2
2019-02-02T01:13:54.432Z,910.3
2019-02-02T01:14:54.332Z,910.3
2019-02-02T01:15:54.234Z,910.2
2019-02-02T01:16:54.126Z,910.1
2019-02-02T01:17:54.170Z,910.2
2019-02-02T01:18:54.074Z,910
2019-02-02T01:19:53.982Z,910
2019-02-02T01:20:54.306Z,910.1
2019-02-02T01:21:54.188Z,910
2019-02-02T01:22:54.238Z,908.5
2019-02-02T01:23:54.354Z,910.1
2019-02-02T01:24:54.262Z,910
2019-02-02T01:25:54.159Z,910
2019-02-02T01:26:54.062Z,910.1
2019-02-02T01:28:06.428Z,908.7
2019-02-02T01:29:06.307Z,910
2019-02-02T01:30:06.166Z,910
2019-02-02T01:31:06.508Z,910
2019-02-02T01:32:06.426Z,910
2019-02-02T01:33:06.325Z,910
2019-02-02T01:34:06.245Z,909.9
2019-02-02T01:35:06.110Z,910
2019-02-02T01:36:06.124Z,910.1
2019-02-02T01:37:06.004Z,909.9
2019-02-02T01:38:06.069Z,909.8
2019-02-02T01:39:05.976Z,909.7
2019-02-02T01:40:05.868Z,909.8
2019-02-02T01:41:06.178Z,909.9
2019-02-02T01:42:06.084Z,909.8
2019-02-02T01:43:05.972Z,909.8
2019-02-02T01:44:05.868Z,909.8
2019-02-02T01:45:05.772Z,909.8
2019-02-02T01:46:05.650Z,909.8
2019-02-02T01:47:05.530Z,909.5
2019-02-02T01:48:05.433Z,909.8
2019-02-02T01:49:05.320Z,909.9
2019-02-02T01:50:05.220Z,910
2019-02-02T01:51:05.556Z,910
2019-02-02T01:52:05.436Z,910
2019-02-02T01:53:05.346Z,910
2019-02-02T01:54:05.248Z,909.8
2019-02-02T01:55:05.270Z,910
2019-02-02T01:56:05.158Z,910
2019-02-02T01:57:05.162Z,910
2019-02-02T01:58:17.554Z,910
2019-02-02T01:59:17.433Z,910
2019-02-02T02:00:17.343Z,910.1
2019-02-02T02:01:17.653Z,910.1
2019-02-02T02:02:17.640Z,910.1
2019-02-02T02:03:17.557Z,910.1
2019-02-02T02:04:17.492Z,910.1
2019-02-02T02:05:17.384Z,910
2019-02-02T02:06:17.382Z,909.9
2019-02-02T02:07:17.283Z,909.9
2019-02-02T02:08:17.182Z,909.9
2019-02-02T02:09:17.068Z,909.9
2019-02-02T02:10:17.098Z,910
2019-02-02T02:11:17.488Z,909.9
2019-02-02T02:12:17.388Z,910
2019-02-02T02:13:17.262Z,909.7
2019-02-02T02:14:17.152Z,909.8
2019-02-02T02:15:17.044Z,909.8
2019-02-02T02:16:16.928Z,909.8
2019-02-02T02:17:16.877Z,909.7
2019-02-02T02:18:16.750Z,909.9
2019-02-02T02:19:16.644Z,909.9
2019-02-02T02:20:16.636Z,909.8
2019-02-02T02:21:16.976Z,909.8
2019-02-02T02:22:16.862Z,909.9
2019-02-02T02:23:16.768Z,909.8
2019-02-02T02:24:16.658Z,909.7
2019-02-02T02:25:16.584Z,909.8
2019-02-02T02:26:16.499Z,909.8
2019-02-02T02:27:16.380Z,909.8
2019-02-02T02:28:28.740Z,908.2
2019-02-02T02:29:28.620Z,909.9
2019-02-02T02:30:28.562Z,909.9
2019-02-02T02:31:28.899Z,909.9
2019-02-02T02:32:28.808Z,909.9
2019-02-02T02:33:28.708Z,909.9
2019-02-02T02:34:28.601Z,909.9
2019-02-02T02:35:28.531Z,909.9
2019-02-02T02:36:28.639Z,909.9
2019-02-02T02:37:28.556Z,909.9
2019-02-02T02:38:28.451Z,910
2019-02-02T02:39:28.330Z,909.9
2019-02-02T02:40:28.224Z,910
2019-02-02T02:41:28.600Z,909.9
2019-02-02T02:42:28.509Z,909.7
2019-02-02T02:43:28.469Z,909.9
2019-02-02T02:44:28.363Z,909.9
2019-02-02T02:45:28.264Z,910
2019-02-02T02:46:28.282Z,910
2019-02-02T02:47:28.531Z,909.9
2019-02-02T02:48:28.462Z,909.9
2019-02-02T02:49:28.355Z,909.7
2019-02-02T02:50:28.242Z,909.8
2019-02-02T02:51:28.577Z,909.7
2019-02-02T02:52:28.519Z,909.8
2019-02-02T02:53:28.398Z,909.8
2019-02-02T02:54:28.128Z,909.7
2019-02-02T02:55:27.865Z,909.7
2019-02-02T02:56:27.586Z,909.5
2019-02-02T02:57:27.343Z,909.8
2019-02-02T02:58:27.273Z,909.7
2019-02-02T02:59:26.997Z,909.7
2019-02-02T03:00:26.747Z,909.8
2019-02-02T03:01:27.071Z,909.9
2019-02-02T03:02:26.977Z,909.9
2019-02-02T03:03:26.878Z,909.9
2019-02-02T03:04:26.758Z,909.9
2019-02-02T03:05:26.642Z,909.9
2019-02-02T03:06:26.532Z,909.8
2019-02-02T03:07:26.462Z,910
2019-02-02T03:08:26.407Z,910
2019-02-02T03:09:26.479Z,910
2019-02-02T03:10:26.416Z,910
2019-02-02T03:11:26.835Z,910
2019-02-02T03:12:26.756Z,910
2019-02-02T03:13:26.695Z,909.8
2019-02-02T03:14:26.844Z,910
2019-02-02T03:15:26.748Z,910.1
2019-02-02T03:16:26.638Z,910
2019-02-02T03:17:26.541Z,910.1
2019-02-02T03:18:26.431Z,910
2019-02-02T03:19:26.334Z,910.1
2019-02-02T03:20:26.342Z,910.1
2019-02-02T03:21:26.882Z,910.3
2019-02-02T03:22:26.785Z,910.2
2019-02-02T03:23:26.659Z,910.3
2019-02-02T03:24:26.670Z,910.3
2019-02-02T03:25:26.559Z,908.7
2019-02-02T03:26:26.461Z,910.2
2019-02-02T03:27:26.417Z,910.2
2019-02-02T03:28:26.301Z,910.2
2019-02-02T03:29:26.249Z,910.2
2019-02-02T03:30:26.268Z,910.1
2019-02-02T03:31:26.702Z,910.3
2019-02-02T03:32:26.672Z,910.3
2019-02-02T03:33:26.710Z,910.3
2019-02-02T03:34:26.546Z,910.3
2019-02-02T03:35:26.412Z,910.2
2019-02-02T03:36:26.312Z,910.3
2019-02-02T03:37:26.183Z,910.4
2019-02-02T03:38:25.898Z,910.4
2019-02-02T03:39:25.805Z,910.4
2019-02-02T03:40:25.709Z,910.4
2019-02-02T03:41:26.038Z,910.4
2019-02-02T03:42:25.929Z,910.6
2019-02-02T03:43:25.821Z,910.7
2019-02-02T03:44:25.747Z,910.5
2019-02-02T03:45:25.659Z,910.6
2019-02-02T03:46:25.559Z,910.5
2019-02-02T03:47:25.591Z,910.6
2019-02-02T03:48:25.486Z,909.5
2019-02-02T03:49:25.412Z,910.8
2019-02-02T03:50:25.351Z,910.8
2019-02-02T03:51:25.635Z,910.8
2019-02-02T03:52:25.515Z,910.8
2019-02-02T03:53:25.439Z,910.8
2019-02-02T03:54:25.379Z,910.7
2019-02-02T03:55:25.300Z,910.8
2019-02-02T03:56:25.201Z,910.7
2019-02-02T03:57:24.935Z,910.8
2019-02-02T03:58:24.802Z,910.8
2019-02-02T03:59:24.718Z,910.7
2019-02-02T04:00:24.643Z,910.1
2019-02-02T04:01:25.072Z,910.8
2019-02-02T04:02:24.981Z,910.8
2019-02-02T04:03:24.935Z,910.8
2019-02-02T04:04:24.836Z,910.8
2019-02-02T04:05:24.751Z,910.8
2019-02-02T04:06:24.639Z,910.8
2019-02-02T04:07:24.595Z,910.6
2019-02-02T04:08:24.339Z,910.8
2019-02-02T04:09:24.267Z,910.8
2019-02-02T04:10:24.405Z,910.7
2019-02-02T04:11:24.739Z,910.7
2019-02-02T04:12:24.607Z,910.7
2019-02-02T04:13:24.507Z,910.7
2019-02-02T04:14:24.429Z,910.7
2019-02-02T04:15:24.408Z,910.8
2019-02-02T04:16:24.307Z,910.9
2019-02-02T04:17:24.223Z,910.8
2019-02-02T04:18:24.134Z,910.6
2019-02-02T04:19:24.041Z,910.6
2019-02-02T04:20:23.935Z,910.6
2019-02-02T04:21:24.244Z,910.7
2019-02-02T04:22:24.129Z,910.7
2019-02-02T04:23:24.051Z,910.6
2019-02-02T04:24:23.953Z,910.7
2019-02-02T04:25:23.859Z,910.8
2019-02-02T04:26:23.726Z,910.9
2019-02-02T04:27:23.601Z,910.8
2019-02-02T04:28:23.493Z,910.8
2019-02-02T04:29:23.395Z,910.7
2019-02-02T04:30:23.275Z,910.8
2019-02-02T04:31:23.605Z,910.8
2019-02-02T04:32:23.471Z,910.9
2019-02-02T04:33:23.387Z,910.9
2019-02-02T04:34:23.286Z,910.8
2019-02-02T04:35:23.179Z,910.7
2019-02-02T04:36:23.083Z,910.7
2019-02-02T04:37:22.955Z,910.1
2019-02-02T04:38:22.846Z,910.5
2019-02-02T04:39:22.749Z,910.5
2019-02-02T04:40:22.635Z,910.6
2019-02-02T04:41:22.941Z,910.7
2019-02-02T04:42:22.845Z,910.8
2019-02-02T04:43:22.721Z,910.8
2019-02-02T04:44:22.627Z,911
2019-02-02T04:45:22.533Z,911
2019-02-02T04:46:22.413Z,911
2019-02-02T04:47:22.306Z,910.9
2019-02-02T04:48:22.270Z,910.9
2019-02-02T04:49:22.159Z,910.8
2019-02-02T04:50:22.042Z,910.9
2019-02-02T04:51:22.357Z,911
2019-02-02T04:52:22.251Z,911.1
2019-02-02T04:53:22.132Z,911.1
2019-02-02T04:54:22.026Z,911
2019-02-02T04:55:21.949Z,911.1
2019-02-02T04:56:21.843Z,910
2019-02-02T04:57:21.713Z,911
2019-02-02T04:58:21.615Z,911
2019-02-02T04:59:30.371Z,910.9
2019-02-02T05:00:30.287Z,911
2019-02-02T05:01:30.722Z,911
2019-02-02T05:02:31.346Z,911
2019-02-02T05:03:31.227Z,911.1
2019-02-02T05:04:31.101Z,911
2019-02-02T05:05:31.024Z,911.2
2019-02-02T05:06:30.909Z,910.9
2019-02-02T05:07:30.815Z,911.1
2019-02-02T05:08:30.719Z,910.8
2019-02-02T05:09:30.837Z,910.9
2019-02-02T05:10:30.740Z,911
2019-02-02T05:11:31.233Z,910.9
2019-02-02T05:12:31.226Z,910.9
2019-02-02T05:13:31.129Z,911
2019-02-02T05:14:31.041Z,910.9
2019-02-02T05:15:30.949Z,910.9
2019-02-02T05:16:30.861Z,910.9
2019-02-02T05:17:30.797Z,910.9
2019-02-02T05:18:30.671Z,910.9
2019-02-02T05:19:30.567Z,911
2019-02-02T05:20:30.450Z,911
2019-02-02T05:21:31.001Z,911.1
2019-02-02T05:22:30.889Z,911.1
2019-02-02T05:23:30.765Z,911.1
2019-02-02T05:24:30.657Z,911.2
2019-02-02T05:25:30.570Z,911.2
2019-02-02T05:26:30.511Z,911.2
2019-02-02T05:27:30.524Z,911.2
2019-02-02T05:28:30.414Z,911.2
2019-02-02T05:29:42.563Z,911.3
2019-02-02T05:30:42.467Z,911.3
2019-02-02T05:31:42.933Z,911.4
2019-02-02T05:32:42.814Z,911.5
2019-02-02T05:33:42.710Z,911.5
2019-02-02T05:34:42.608Z,911.5
2019-02-02T05:35:42.614Z,911.5
2019-02-02T05:36:42.494Z,911.6
2019-02-02T05:37:42.220Z,911.5
2019-02-02T05:38:41.945Z,911.6
2019-02-02T05:39:41.794Z,911.7
2019-02-02T05:40:41.710Z,911.5
2019-02-02T05:41:42.038Z,911.6
2019-02-02T05:42:41.954Z,911.7
2019-02-02T05:43:41.858Z,911.8
2019-02-02T05:44:41.766Z,911.7
2019-02-02T05:45:41.660Z,911.7
2019-02-02T05:46:41.693Z,911.8
2019-02-02T05:47:41.606Z,911.8
2019-02-02T05:48:41.502Z,911.8
2019-02-02T05:49:41.395Z,911.9
2019-02-02T05:50:41.272Z,912
2019-02-02T05:51:41.600Z,911.9
2019-02-02T05:52:41.498Z,912
2019-02-02T05:53:41.374Z,912
2019-02-02T05:54:41.280Z,911.8
2019-02-02T05:55:41.174Z,911.8
2019-02-02T05:56:41.077Z,911.8
2019-02-02T05:57:40.959Z,912
2019-02-02T05:58:40.856Z,911.9
2019-02-02T05:59:52.231Z,912
2019-02-02T06:00:52.338Z,911.8
2019-02-02T06:01:52.804Z,911.9
2019-02-02T06:02:52.794Z,911.7
2019-02-02T06:03:52.827Z,911.9
2019-02-02T06:04:52.716Z,912
2019-02-02T06:05:52.632Z,912.1
2019-02-02T06:06:52.548Z,912.1
2019-02-02T06:07:52.450Z,912.1
2019-02-02T06:08:52.393Z,912.1
2019-02-02T06:09:52.398Z,912
2019-02-02T06:10:52.297Z,912.1
2019-02-02T06:11:52.624Z,912.2
2019-02-02T06:12:52.526Z,912.2
2019-02-02T06:13:52.424Z,912.2
2019-02-02T06:14:52.314Z,912.2
2019-02-02T06:15:52.204Z,912.2
2019-02-02T06:16:52.093Z,912.2
2019-02-02T06:17:51.979Z,912.1
2019-02-02T06:18:51.907Z,912.2
2019-02-02T06:19:51.906Z,912.3
2019-02-02T06:20:51.814Z,911.5
2019-02-02T06:21:52.123Z,912.2
2019-02-02T06:22:52.006Z,912
2019-02-02T06:23:51.936Z,912.3
2019-02-02T06:24:53.700Z,912.2
2019-02-02T06:25:53.710Z,912.2
2019-02-02T06:26:53.742Z,912.3
2019-02-02T06:27:53.642Z,912.3
2019-02-02T06:28:53.572Z,912.3
2019-02-02T06:30:05.728Z,912.3
2019-02-02T06:31:05.619Z,912.4
2019-02-02T06:32:13.049Z,912.2
2019-02-02T06:33:12.964Z,912.4
2019-02-02T06:34:12.854Z,912.4
2019-02-02T06:35:12.748Z,912.4
2019-02-02T06:36:12.642Z,912.5
2019-02-02T06:37:12.538Z,912.5
2019-02-02T06:38:12.475Z,912.3
2019-02-02T06:39:12.388Z,912.4
2019-02-02T06:40:12.277Z,912.5
2019-02-02T06:41:12.164Z,912.6
2019-02-02T06:42:12.473Z,912.4
2019-02-02T06:43:12.462Z,912.5
2019-02-02T06:44:12.352Z,912.4
2019-02-02T06:45:12.259Z,912.4
2019-02-02T06:46:12.148Z,912.4
2019-02-02T06:47:12.116Z,912.6
2019-02-02T06:48:11.998Z,912.6
2019-02-02T06:49:11.881Z,912.6
2019-02-02T06:50:11.799Z,912.7
2019-02-02T06:51:11.527Z,912.6
2019-02-02T06:52:11.867Z,912.6
2019-02-02T06:53:11.762Z,912.5
2019-02-02T06:54:11.652Z,912.6
2019-02-02T06:55:11.584Z,912.5
2019-02-02T06:56:11.476Z,912.4
2019-02-02T06:57:11.368Z,912.5
2019-02-02T06:58:11.269Z,912.5
2019-02-02T06:59:11.184Z,912.4
2019-02-02T07:00:17.212Z,912.5
2019-02-02T07:01:17.222Z,912.6
2019-02-02T07:02:17.557Z,912.6
2019-02-02T07:03:17.462Z,912.5
2019-02-02T07:04:17.340Z,912.7
2019-02-02T07:05:17.241Z,912.7
2019-02-02T07:06:17.259Z,912.8
2019-02-02T07:07:17.147Z,912.7
2019-02-02T07:08:17.040Z,912.8
2019-02-02T07:09:16.918Z,912.7
2019-02-02T07:10:16.830Z,912.8
2019-02-02T07:11:16.727Z,912.8
2019-02-02T07:12:17.066Z,912.8
2019-02-02T07:13:16.960Z,912.9
2019-02-02T07:14:16.867Z,912.9
2019-02-02T07:15:16.771Z,912.9
2019-02-02T07:16:16.652Z,912.8
2019-02-02T07:17:16.558Z,912.8
2019-02-02T07:18:16.472Z,912.9
2019-02-02T07:19:16.372Z,912.9
2019-02-02T07:20:16.123Z,913
2019-02-02T07:21:16.014Z,913
2019-02-02T07:22:16.314Z,913
2019-02-02T07:23:16.206Z,913.1
2019-02-02T07:24:16.166Z,913.1
2019-02-02T07:25:16.073Z,913.1
2019-02-02T07:26:16.009Z,913.1
2019-02-02T07:27:15.920Z,913.1
2019-02-02T07:28:15.927Z,912.9
2019-02-02T07:29:15.822Z,912.8
2019-02-02T07:30:29.572Z,912.9
2019-02-02T07:31:29.706Z,912.8
2019-02-02T07:32:30.016Z,912.8
2019-02-02T07:33:29.909Z,912.8
2019-02-02T07:34:29.798Z,913
2019-02-02T07:35:29.712Z,913.2
2019-02-02T07:36:29.600Z,913.3
2019-02-02T07:37:29.497Z,913.3
2019-02-02T07:38:29.390Z,912.6
2019-02-02T07:39:29.362Z,913.4
2019-02-02T07:40:29.268Z,913.4
2019-02-02T07:41:29.174Z,913.4
2019-02-02T07:42:29.468Z,913.4
2019-02-02T07:43:29.359Z,913.4
2019-02-02T07:44:29.246Z,913.3
2019-02-02T07:45:29.152Z,913.4
2019-02-02T07:46:29.045Z,913.4
2019-02-02T07:47:28.952Z,913.6
2019-02-02T07:48:28.833Z,913.5
2019-02-02T07:49:28.562Z,913.7
2019-02-02T07:50:28.481Z,913.6
2019-02-02T07:51:28.365Z,913.6
2019-02-02T07:52:28.678Z,913.3
2019-02-02T07:53:28.694Z,913.4
2019-02-02T07:54:28.574Z,913.4
2019-02-02T07:55:28.469Z,913
2019-02-02T07:56:28.360Z,913.4
2019-02-02T07:57:28.233Z,913.5
2019-02-02T07:58:28.129Z,913.6
2019-02-02T07:59:28.021Z,913.6
2019-02-02T08:00:41.998Z,913.3
2019-02-02T08:01:41.888Z,913.5
2019-02-02T08:02:42.339Z,911.9
2019-02-02T08:03:42.237Z,913.2
2019-02-02T08:04:42.126Z,913.3
2019-02-02T08:05:42.039Z,913.4
2019-02-02T08:06:41.777Z,913.4
2019-02-02T08:07:41.680Z,913.6
2019-02-02T08:08:41.425Z,913.6
2019-02-02T08:09:41.324Z,913.7
2019-02-02T08:10:41.268Z,912.2
2019-02-02T08:11:41.159Z,913.3
2019-02-02T08:12:41.474Z,913.3
2019-02-02T08:13:41.362Z,913.3
2019-02-02T08:14:41.247Z,913.2
2019-02-02T08:15:41.282Z,913.1
2019-02-02T08:16:41.206Z,912.9
2019-02-02T08:17:41.100Z,912.8
2019-02-02T08:18:40.999Z,913
2019-02-02T08:19:40.891Z,913.4
2019-02-02T08:20:40.773Z,913.6
2019-02-02T08:21:40.803Z,913.7
2019-02-02T08:22:41.162Z,913.8
2019-02-02T08:23:41.048Z,913.8
2019-02-02T08:24:40.943Z,913.6
2019-02-02T08:25:40.857Z,913.8
2019-02-02T08:26:40.787Z,913.7
2019-02-02T08:27:40.749Z,913.5
2019-02-02T08:28:40.649Z,913.7
2019-02-02T08:29:40.541Z,913.7
2019-02-02T08:30:53.591Z,912.2
2019-02-02T08:31:53.523Z,913.8
2019-02-02T08:32:54.055Z,913.7
2019-02-02T08:33:54.183Z,913.7
2019-02-02T08:34:54.074Z,913.8
2019-02-02T08:35:54.024Z,913.6
2019-02-02T08:36:53.916Z,913.6
2019-02-02T08:37:53.856Z,913.7
2019-02-02T08:38:53.769Z,913.7
2019-02-02T08:39:53.645Z,913.7
2019-02-02T08:40:53.559Z,913.8
2019-02-02T08:41:53.443Z,913.6
2019-02-02T08:42:54.224Z,913.7
2019-02-02T08:43:54.107Z,913.8
2019-02-02T08:44:54.028Z,913.7
2019-02-02T08:45:53.936Z,913.8
2019-02-02T08:46:53.856Z,913.8
2019-02-02T08:47:53.754Z,913.8
2019-02-02T08:48:53.656Z,913.9
2019-02-02T08:49:53.680Z,913.8
2019-02-02T08:50:53.711Z,913.7
2019-02-02T08:51:53.601Z,913.9
2019-02-02T08:52:54.522Z,913.9
2019-02-02T08:53:54.421Z,914
2019-02-02T08:54:54.352Z,914
2019-02-02T08:55:54.403Z,914.1
2019-02-02T08:56:54.542Z,913.9
2019-02-02T08:57:54.542Z,914.2
2019-02-02T08:58:54.470Z,914.1
2019-02-02T08:59:54.394Z,912.9
2019-02-02T09:01:05.251Z,914.1
2019-02-02T09:02:05.153Z,914.1
2019-02-02T09:03:05.656Z,914.2
2019-02-02T09:04:06.077Z,914.2
2019-02-02T09:05:06.205Z,912.8
2019-02-02T09:06:06.419Z,914.2
2019-02-02T09:07:06.325Z,913.8
2019-02-02T09:08:06.271Z,914.3
2019-02-02T09:09:06.167Z,914.3
2019-02-02T09:10:06.297Z,914.4
2019-02-02T09:11:06.222Z,914.4
2019-02-02T09:12:06.115Z,914.5
2019-02-02T09:13:06.455Z,914.4
2019-02-02T09:14:06.393Z,914.5
2019-02-02T09:15:06.286Z,914.5
2019-02-02T09:16:06.193Z,914.6
2019-02-02T09:17:06.087Z,914.6
2019-02-02T09:18:05.999Z,914.7
2019-02-02T09:19:06.359Z,914.7
2019-02-02T09:20:06.261Z,914.7
2019-02-02T09:21:06.156Z,914.7
2019-02-02T09:22:06.039Z,914.7
2019-02-02T09:23:07.635Z,914.8
2019-02-02T09:24:07.799Z,914.7
2019-02-02T09:25:07.763Z,914.7
2019-02-02T09:26:07.651Z,914.8
2019-02-02T09:27:07.587Z,914.7
2019-02-02T09:28:07.481Z,914.5
2019-02-02T09:29:10.850Z,914.8
2019-02-02T09:30:10.846Z,914.8
2019-02-02T09:31:16.965Z,914.8
2019-02-02T09:32:16.933Z,914.7
2019-02-02T09:33:17.399Z,914.9
2019-02-02T09:34:17.321Z,914.9
2019-02-02T09:35:17.210Z,914.9
2019-02-02T09:36:17.967Z,914.8
2019-02-02T09:37:17.915Z,914
2019-02-02T09:38:17.863Z,915.1
2019-02-02T09:39:17.759Z,915.1
2019-02-02T09:40:17.853Z,915
2019-02-02T09:41:17.747Z,915
2019-02-02T09:42:17.653Z,915.2
2019-02-02T09:43:18.100Z,915.1
2019-02-02T09:44:19.035Z,915.1
2019-02-02T09:45:19.996Z,915.2
2019-02-02T09:46:23.181Z,915.2
2019-02-02T09:47:26.863Z,915.2
2019-02-02T09:48:26.859Z,915
2019-02-02T09:49:26.827Z,915.2
2019-02-02T09:50:27.057Z,915.2
2019-02-02T09:51:26.965Z,915.2
2019-02-02T09:52:26.860Z,915.1
2019-02-02T09:53:27.183Z,915.2
2019-02-02T09:54:27.923Z,915.1
2019-02-02T09:55:28.055Z,914.5
2019-02-02T09:56:27.971Z,915.2
2019-02-02T09:57:31.906Z,915.2
2019-02-02T09:58:31.819Z,915.2
2019-02-02T09:59:31.714Z,915.3
2019-02-02T10:00:31.779Z,915.3
2019-02-02T10:01:31.680Z,914.7
2019-02-02T10:02:31.588Z,914.6
2019-02-02T10:03:32.273Z,915.3
2019-02-02T10:04:32.172Z,915.3
2019-02-02T10:05:32.259Z,913.9
2019-02-02T10:06:32.159Z,915.3
2019-02-02T10:07:32.079Z,915.2
2019-02-02T10:08:31.976Z,915.2
2019-02-02T10:09:31.982Z,915.3
2019-02-02T10:10:31.986Z,915.4
2019-02-02T10:11:31.915Z,915.4
2019-02-02T10:12:31.828Z,915.3
2019-02-02T10:13:32.293Z,915.5
2019-02-02T10:14:32.197Z,915.5
2019-02-02T10:15:32.103Z,915.4
2019-02-02T10:16:32.067Z,915.2
2019-02-02T10:17:31.993Z,915.4
2019-02-02T10:18:32.006Z,915.4
2019-02-02T10:19:31.906Z,915.5
2019-02-02T10:20:31.855Z,915.5
2019-02-02T10:21:31.854Z,915.6
2019-02-02T10:22:31.776Z,915.5
2019-02-02T10:23:32.316Z,915.4
2019-02-02T10:24:32.228Z,915.4
2019-02-02T10:25:32.139Z,915.5
2019-02-02T10:26:32.049Z,914.5
2019-02-02T10:27:31.957Z,915.6
2019-02-02T10:28:31.887Z,915.6
2019-02-02T10:29:31.773Z,915.6
2019-02-02T10:30:31.695Z,915.7
2019-02-02T10:31:40.727Z,915.7
2019-02-02T10:32:43.617Z,915.7
2019-02-02T10:33:44.118Z,915.6
2019-02-02T10:34:44.055Z,915.7
2019-02-02T10:35:43.957Z,915.6
2019-02-02T10:36:43.879Z,915.5
2019-02-02T10:37:43.895Z,915.7
2019-02-02T10:38:43.805Z,915.7
2019-02-02T10:39:43.714Z,915.8
2019-02-02T10:40:43.625Z,915.9
2019-02-02T10:41:43.530Z,915.8
2019-02-02T10:42:43.432Z,915.8
2019-02-02T10:43:44.055Z,915.7
2019-02-02T10:44:43.938Z,915.7
2019-02-02T10:45:43.843Z,915.8
2019-02-02T10:46:43.733Z,915.7
2019-02-02T10:47:43.959Z,915.7
2019-02-02T10:48:43.868Z,915.8
2019-02-02T10:49:43.772Z,915.9
2019-02-02T10:50:43.659Z,915.7
2019-02-02T10:51:43.563Z,915.7
2019-02-02T10:52:43.449Z,915.7
2019-02-02T10:53:43.944Z,915.8
2019-02-02T10:54:43.872Z,915.8
2019-02-02T10:55:43.798Z,915.7
2019-02-02T10:56:43.710Z,915.8
2019-02-02T10:57:43.598Z,915.8
2019-02-02T10:58:43.511Z,915.7
2019-02-02T10:59:43.440Z,915.9
2019-02-02T11:00:43.335Z,915.8
2019-02-02T11:01:52.171Z,915.8
2019-02-02T11:02:52.136Z,915.8
2019-02-02T11:03:52.514Z,915.8
2019-02-02T11:04:55.019Z,915.9
2019-02-02T11:05:55.510Z,914.5
2019-02-02T11:06:56.001Z,915.9
2019-02-02T11:07:56.509Z,916
2019-02-02T11:08:56.545Z,915.9
2019-02-02T11:09:56.967Z,916
2019-02-02T11:10:57.436Z,915.9
2019-02-02T11:11:57.481Z,916
2019-02-02T11:12:58.193Z,916
2019-02-02T11:13:59.091Z,916
2019-02-02T11:14:59.566Z,916
2019-02-02T11:15:59.879Z,915.9
2019-02-02T11:17:00.317Z,916
2019-02-02T11:18:01.074Z,915.9
2019-02-02T11:19:01.266Z,916
2019-02-02T11:20:01.697Z,915.8
2019-02-02T11:21:02.368Z,915.9
2019-02-02T11:22:02.966Z,915.9
2019-02-02T11:23:03.684Z,915.9
2019-02-02T11:24:04.740Z,916
2019-02-02T11:25:05.308Z,915.9
2019-02-02T11:26:05.566Z,915.9
2019-02-02T11:27:05.797Z,915.7
2019-02-02T11:28:06.198Z,915.8
2019-02-02T11:29:06.916Z,915.8
2019-02-02T11:30:07.044Z,915.9
2019-02-02T11:31:06.922Z,916
2019-02-02T11:32:07.868Z,915.9
2019-02-02T11:33:07.882Z,915.9
2019-02-02T11:34:09.172Z,915.9
2019-02-02T11:35:11.887Z,915.9
2019-02-02T11:36:11.824Z,915.7
2019-02-02T11:37:14.765Z,915.9
2019-02-02T11:38:14.688Z,915.9
2019-02-02T11:39:14.580Z,916
2019-02-02T11:40:14.494Z,916
2019-02-02T11:41:14.398Z,916
2019-02-02T11:42:14.439Z,916
2019-02-02T11:43:14.345Z,915.9
2019-02-02T11:44:14.684Z,916
2019-02-02T11:45:14.585Z,916.1
2019-02-02T11:46:15.014Z,916
2019-02-02T11:47:14.918Z,916
2019-02-02T11:48:15.991Z,915.9
2019-02-02T11:49:15.926Z,916
2019-02-02T11:50:15.992Z,916
2019-02-02T11:51:15.927Z,915.4
2019-02-02T11:52:15.840Z,915.1
2019-02-02T11:53:15.906Z,916.1
2019-02-02T11:54:16.623Z,916.1
2019-02-02T11:55:16.536Z,916
2019-02-02T11:56:16.422Z,916.1
2019-02-02T11:57:16.350Z,916
2019-02-02T11:58:16.250Z,916.1
2019-02-02T11:59:16.154Z,916.1
2019-02-02T12:00:17.356Z,916.1
2019-02-02T12:01:17.266Z,916.1
2019-02-02T12:02:17.200Z,916.2
2019-02-02T12:03:17.101Z,916.2
2019-02-02T12:04:17.444Z,914.7
2019-02-02T12:05:17.564Z,916
2019-02-02T12:06:17.462Z,916
2019-02-02T12:07:17.401Z,916
2019-02-02T12:08:17.284Z,916.1
2019-02-02T12:09:17.192Z,916.1
2019-02-02T12:10:17.091Z,916
2019-02-02T12:11:16.969Z,915.9
2019-02-02T12:12:16.876Z,915.9
2019-02-02T12:13:16.932Z,916
2019-02-02T12:14:17.277Z,915.9
2019-02-02T12:15:17.172Z,915.9
2019-02-02T12:16:17.286Z,915.9
2019-02-02T12:17:17.230Z,915.9
2019-02-02T12:18:17.147Z,916
2019-02-02T12:19:17.173Z,916
2019-02-02T12:20:17.101Z,916
2019-02-02T12:21:17.020Z,916
2019-02-02T12:22:16.913Z,916
2019-02-02T12:23:16.852Z,916
2019-02-02T12:24:18.252Z,916
2019-02-02T12:25:18.163Z,916.1
2019-02-02T12:26:18.288Z,915.9
2019-02-02T12:27:18.201Z,916
2019-02-02T12:28:18.134Z,916
2019-02-02T12:29:18.143Z,916
2019-02-02T12:30:18.052Z,916
2019-02-02T12:31:17.938Z,916.1
2019-02-02T12:32:27.771Z,914.7
2019-02-02T12:33:27.704Z,916
2019-02-02T12:34:28.060Z,916
2019-02-02T12:35:27.978Z,915.9
2019-02-02T12:36:27.898Z,914.7
2019-02-02T12:37:27.824Z,916
2019-02-02T12:38:27.724Z,916
2019-02-02T12:39:27.654Z,916.1
2019-02-02T12:40:27.568Z,916
2019-02-02T12:41:27.460Z,916
2019-02-02T12:42:27.412Z,915.9
2019-02-02T12:43:27.324Z,915.9
2019-02-02T12:44:27.671Z,916
2019-02-02T12:45:27.611Z,916
2019-02-02T12:46:27.495Z,916.1
2019-02-02T12:47:27.424Z,916.1
2019-02-02T12:48:27.321Z,916.1
2019-02-02T12:49:27.212Z,916.2
2019-02-02T12:50:27.207Z,916.1
2019-02-02T12:51:27.094Z,916.1
2019-02-02T12:52:26.987Z,916
2019-02-02T12:53:26.936Z,916.1
2019-02-02T12:54:27.279Z,916.1
2019-02-02T12:55:27.178Z,916
2019-02-02T12:56:27.109Z,916.1
2019-02-02T12:57:26.994Z,916.1
2019-02-02T12:58:26.888Z,916.1
2019-02-02T12:59:26.783Z,916.1
2019-02-02T13:00:26.671Z,916.2
2019-02-02T13:01:26.583Z,916.2
2019-02-02T13:02:38.958Z,916.2
2019-02-02T13:03:39.107Z,916.2
2019-02-02T13:04:39.431Z,916.1